sensor_id;sensor_type;location;lat;lon;timestamp;P1;durP1;ratioP1;P2;durP2;ratioP2
54743;SDS011;40639;53.170;6.728;2023-12-14T00:01:45;8.32;;;4.63;;
54743;SDS011;40639;53.170;6.728;2023-12-14T00:04:13;8.43;;;4.00;;
54743;SDS011;40639;53.170;6.728;2023-12-14T00:06:39;6.72;;;3.75;;
54743;SDS011;40639;53.170;6.728;2023-12-14T00:09:05;8.48;;;4.47;;
54743;SDS011;40639;53.170;6.728;2023-12-14T00:11:37;10.02;;;4.07;;
54743;SDS011;40639;53.170;6.728;2023-12-14T00:14:03;10.05;;;4.38;;
54743;SDS011;40639;53.170;6.728;2023-12-14T00:16:30;7.15;;;3.83;;
54743;SDS011;40639;53.170;6.728;2023-12-14T00:18:56;9.23;;;4.32;;
54743;SDS011;40639;53.170;6.728;2023-12-14T00:21:22;6.72;;;3.30;;
54743;SDS011;40639;53.170;6.728;2023-12-14T00:23:48;5.82;;;3.30;;
54743;SDS011;40639;53.170;6.728;2023-12-14T00:26:14;6.28;;;3.30;;
54743;SDS011;40639;53.170;6.728;2023-12-14T00:28:42;6.75;;;3.80;;
54743;SDS011;40639;53.170;6.728;2023-12-14T00:31:08;5.68;;;3.15;;
54743;SDS011;40639;53.170;6.728;2023-12-14T00:33:34;5.65;;;3.33;;
54743;SDS011;40639;53.170;6.728;2023-12-14T00:36:01;6.05;;;3.33;;
54743;SDS011;40639;53.170;6.728;2023-12-14T00:38:27;7.03;;;4.00;;
54743;SDS011;40639;53.170;6.728;2023-12-14T00:40:53;5.40;;;3.00;;
54743;SDS011;40639;53.170;6.728;2023-12-14T00:43:19;6.28;;;2.90;;
54743;SDS011;40639;53.170;6.728;2023-12-14T00:45:45;5.18;;;2.83;;
54743;SDS011;40639;53.170;6.728;2023-12-14T00:48:12;5.80;;;2.95;;
54743;SDS011;40639;53.170;6.728;2023-12-14T00:50:38;5.28;;;3.05;;
54743;SDS011;40639;53.170;6.728;2023-12-14T00:53:04;6.22;;;3.00;;
54743;SDS011;40639;53.170;6.728;2023-12-14T00:55:30;4.47;;;2.63;;
54743;SDS011;40639;53.170;6.728;2023-12-14T00:57:56;6.90;;;3.20;;
54743;SDS011;40639;53.170;6.728;2023-12-14T01:00:22;5.18;;;2.95;;
54743;SDS011;40639;53.170;6.728;2023-12-14T01:02:49;6.40;;;3.22;;
54743;SDS011;40639;53.170;6.728;2023-12-14T01:05:15;8.15;;;4.32;;
54743;SDS011;40639;53.170;6.728;2023-12-14T01:07:41;7.97;;;4.43;;
54743;SDS011;40639;53.170;6.728;2023-12-14T01:10:07;8.27;;;4.30;;
54743;SDS011;40639;53.170;6.728;2023-12-14T01:12:34;10.82;;;5.05;;
54743;SDS011;40639;53.170;6.728;2023-12-14T01:15:00;8.45;;;4.15;;
54743;SDS011;40639;53.170;6.728;2023-12-14T01:17:26;15.00;;;5.32;;
54743;SDS011;40639;53.170;6.728;2023-12-14T01:19:53;9.93;;;4.97;;
54743;SDS011;40639;53.170;6.728;2023-12-14T01:22:20;8.07;;;4.72;;
54743;SDS011;40639;53.170;6.728;2023-12-14T01:24:46;7.95;;;4.22;;
54743;SDS011;40639;53.170;6.728;2023-12-14T01:27:12;10.07;;;4.85;;
54743;SDS011;40639;53.170;6.728;2023-12-14T01:29:39;9.10;;;4.60;;
54743;SDS011;40639;53.170;6.728;2023-12-14T01:32:05;10.68;;;4.38;;
54743;SDS011;40639;53.170;6.728;2023-12-14T01:34:32;7.25;;;4.40;;
54743;SDS011;40639;53.170;6.728;2023-12-14T01:36:58;9.95;;;4.82;;
54743;SDS011;40639;53.170;6.728;2023-12-14T01:39:24;12.07;;;4.78;;
54743;SDS011;40639;53.170;6.728;2023-12-14T01:41:50;10.07;;;5.35;;
54743;SDS011;40639;53.170;6.728;2023-12-14T01:44:16;10.63;;;5.32;;
54743;SDS011;40639;53.170;6.728;2023-12-14T01:46:42;12.23;;;5.35;;
54743;SDS011;40639;53.170;6.728;2023-12-14T01:49:08;12.20;;;5.72;;
54743;SDS011;40639;53.170;6.728;2023-12-14T01:51:35;11.77;;;5.47;;
54743;SDS011;40639;53.170;6.728;2023-12-14T01:54:01;11.82;;;5.57;;
54743;SDS011;40639;53.170;6.728;2023-12-14T01:56:27;11.80;;;5.85;;
54743;SDS011;40639;53.170;6.728;2023-12-14T01:58:53;10.25;;;4.82;;
54743;SDS011;40639;53.170;6.728;2023-12-14T02:01:39;10.65;;;5.50;;
54743;SDS011;40639;53.170;6.728;2023-12-14T02:04:07;11.20;;;5.65;;
54743;SDS011;40639;53.170;6.728;2023-12-14T02:06:34;10.05;;;5.30;;
54743;SDS011;40639;53.170;6.728;2023-12-14T02:09:01;13.13;;;5.97;;
54743;SDS011;40639;53.170;6.728;2023-12-14T02:11:27;11.48;;;5.53;;
54743;SDS011;40639;53.170;6.728;2023-12-14T02:13:53;14.00;;;5.63;;
54743;SDS011;40639;53.170;6.728;2023-12-14T02:16:19;13.55;;;5.72;;
54743;SDS011;40639;53.170;6.728;2023-12-14T02:18:46;12.20;;;5.90;;
54743;SDS011;40639;53.170;6.728;2023-12-14T02:21:12;13.45;;;5.97;;
54743;SDS011;40639;53.170;6.728;2023-12-14T02:23:44;14.85;;;5.82;;
54743;SDS011;40639;53.170;6.728;2023-12-14T02:26:11;10.38;;;5.68;;
54743;SDS011;40639;53.170;6.728;2023-12-14T02:28:37;10.90;;;5.25;;
54743;SDS011;40639;53.170;6.728;2023-12-14T02:31:03;10.63;;;5.63;;
54743;SDS011;40639;53.170;6.728;2023-12-14T02:33:29;10.65;;;5.25;;
54743;SDS011;40639;53.170;6.728;2023-12-14T02:35:56;10.82;;;5.47;;
54743;SDS011;40639;53.170;6.728;2023-12-14T02:38:22;11.57;;;5.40;;
54743;SDS011;40639;53.170;6.728;2023-12-14T02:40:48;12.77;;;5.80;;
54743;SDS011;40639;53.170;6.728;2023-12-14T02:43:18;12.60;;;5.35;;
54743;SDS011;40639;53.170;6.728;2023-12-14T02:45:44;12.23;;;5.53;;
54743;SDS011;40639;53.170;6.728;2023-12-14T02:48:11;13.65;;;5.40;;
54743;SDS011;40639;53.170;6.728;2023-12-14T02:50:37;13.77;;;5.72;;
54743;SDS011;40639;53.170;6.728;2023-12-14T02:53:03;11.98;;;5.30;;
54743;SDS011;40639;53.170;6.728;2023-12-14T02:55:29;13.07;;;5.35;;
54743;SDS011;40639;53.170;6.728;2023-12-14T02:57:55;11.82;;;4.85;;
54743;SDS011;40639;53.170;6.728;2023-12-14T03:00:22;10.60;;;4.78;;
54743;SDS011;40639;53.170;6.728;2023-12-14T03:02:48;13.27;;;5.55;;
54743;SDS011;40639;53.170;6.728;2023-12-14T03:05:14;10.98;;;5.47;;
54743;SDS011;40639;53.170;6.728;2023-12-14T03:07:40;11.52;;;5.13;;
54743;SDS011;40639;53.170;6.728;2023-12-14T03:10:07;10.23;;;4.65;;
54743;SDS011;40639;53.170;6.728;2023-12-14T03:12:33;10.13;;;4.93;;
54743;SDS011;40639;53.170;6.728;2023-12-14T03:14:59;10.55;;;5.18;;
54743;SDS011;40639;53.170;6.728;2023-12-14T03:17:25;11.13;;;4.80;;
54743;SDS011;40639;53.170;6.728;2023-12-14T03:19:52;10.00;;;4.75;;
54743;SDS011;40639;53.170;6.728;2023-12-14T03:22:18;14.70;;;5.35;;
54743;SDS011;40639;53.170;6.728;2023-12-14T03:24:45;12.13;;;4.95;;
54743;SDS011;40639;53.170;6.728;2023-12-14T03:27:11;9.95;;;4.93;;
54743;SDS011;40639;53.170;6.728;2023-12-14T03:29:37;10.52;;;5.60;;
54743;SDS011;40639;53.170;6.728;2023-12-14T03:32:03;13.07;;;4.95;;
54743;SDS011;40639;53.170;6.728;2023-12-14T03:34:30;9.88;;;5.10;;
54743;SDS011;40639;53.170;6.728;2023-12-14T03:36:56;11.82;;;5.03;;
54743;SDS011;40639;53.170;6.728;2023-12-14T03:39:22;12.57;;;5.20;;
54743;SDS011;40639;53.170;6.728;2023-12-14T03:41:48;11.75;;;5.35;;
54743;SDS011;40639;53.170;6.728;2023-12-14T03:44:14;11.63;;;4.90;;
54743;SDS011;40639;53.170;6.728;2023-12-14T03:46:41;12.07;;;4.35;;
54743;SDS011;40639;53.170;6.728;2023-12-14T03:49:07;12.32;;;5.00;;
54743;SDS011;40639;53.170;6.728;2023-12-14T03:51:34;11.30;;;4.55;;
54743;SDS011;40639;53.170;6.728;2023-12-14T03:54:00;12.30;;;5.30;;
54743;SDS011;40639;53.170;6.728;2023-12-14T03:56:26;10.43;;;5.13;;
54743;SDS011;40639;53.170;6.728;2023-12-14T03:58:52;12.63;;;4.85;;
54743;SDS011;40639;53.170;6.728;2023-12-14T04:01:18;12.07;;;5.00;;
54743;SDS011;40639;53.170;6.728;2023-12-14T04:03:46;12.32;;;4.43;;
54743;SDS011;40639;53.170;6.728;2023-12-14T04:06:12;10.98;;;4.82;;
54743;SDS011;40639;53.170;6.728;2023-12-14T04:08:38;12.40;;;5.50;;
54743;SDS011;40639;53.170;6.728;2023-12-14T04:11:05;13.20;;;4.95;;
54743;SDS011;40639;53.170;6.728;2023-12-14T04:13:31;10.35;;;4.30;;
54743;SDS011;40639;53.170;6.728;2023-12-14T04:15:57;12.90;;;5.28;;
54743;SDS011;40639;53.170;6.728;2023-12-14T04:18:24;11.43;;;5.30;;
54743;SDS011;40639;53.170;6.728;2023-12-14T04:20:50;11.98;;;5.97;;
54743;SDS011;40639;53.170;6.728;2023-12-14T04:23:16;13.15;;;5.70;;
54743;SDS011;40639;53.170;6.728;2023-12-14T04:25:43;12.63;;;5.78;;
54743;SDS011;40639;53.170;6.728;2023-12-14T04:28:09;15.25;;;6.60;;
54743;SDS011;40639;53.170;6.728;2023-12-14T04:30:35;13.30;;;6.15;;
54743;SDS011;40639;53.170;6.728;2023-12-14T04:33:02;14.68;;;6.10;;
54743;SDS011;40639;53.170;6.728;2023-12-14T04:35:28;15.20;;;6.30;;
54743;SDS011;40639;53.170;6.728;2023-12-14T04:37:54;15.15;;;6.72;;
54743;SDS011;40639;53.170;6.728;2023-12-14T04:40:20;17.17;;;7.10;;
54743;SDS011;40639;53.170;6.728;2023-12-14T04:42:46;14.73;;;7.10;;
54743;SDS011;40639;53.170;6.728;2023-12-14T04:45:12;14.20;;;6.35;;
54743;SDS011;40639;53.170;6.728;2023-12-14T04:47:38;15.48;;;6.45;;
54743;SDS011;40639;53.170;6.728;2023-12-14T04:50:05;12.57;;;6.45;;
54743;SDS011;40639;53.170;6.728;2023-12-14T04:52:31;15.70;;;6.47;;
54743;SDS011;40639;53.170;6.728;2023-12-14T04:54:58;12.60;;;6.38;;
54743;SDS011;40639;53.170;6.728;2023-12-14T04:57:24;14.68;;;6.05;;
54743;SDS011;40639;53.170;6.728;2023-12-14T04:59:50;11.70;;;5.70;;
54743;SDS011;40639;53.170;6.728;2023-12-14T05:02:16;11.57;;;5.97;;
54743;SDS011;40639;53.170;6.728;2023-12-14T05:04:42;11.18;;;5.68;;
54743;SDS011;40639;53.170;6.728;2023-12-14T05:07:08;15.45;;;6.35;;
54743;SDS011;40639;53.170;6.728;2023-12-14T05:09:34;12.60;;;6.10;;
54743;SDS011;40639;53.170;6.728;2023-12-14T05:12:01;14.65;;;6.00;;
54743;SDS011;40639;53.170;6.728;2023-12-14T05:14:27;14.00;;;5.70;;
54743;SDS011;40639;53.170;6.728;2023-12-14T05:16:54;13.45;;;5.68;;
54743;SDS011;40639;53.170;6.728;2023-12-14T05:19:20;14.88;;;6.10;;
54743;SDS011;40639;53.170;6.728;2023-12-14T05:21:46;13.27;;;6.13;;
54743;SDS011;40639;53.170;6.728;2023-12-14T05:24:13;12.10;;;6.05;;
54743;SDS011;40639;53.170;6.728;2023-12-14T05:26:39;15.02;;;6.40;;
54743;SDS011;40639;53.170;6.728;2023-12-14T05:29:05;14.15;;;6.15;;
54743;SDS011;40639;53.170;6.728;2023-12-14T05:31:31;13.20;;;5.95;;
54743;SDS011;40639;53.170;6.728;2023-12-14T05:33:58;11.18;;;5.20;;
54743;SDS011;40639;53.170;6.728;2023-12-14T05:36:24;19.55;;;6.43;;
54743;SDS011;40639;53.170;6.728;2023-12-14T05:38:50;16.38;;;6.22;;
54743;SDS011;40639;53.170;6.728;2023-12-14T05:41:16;12.98;;;5.53;;
54743;SDS011;40639;53.170;6.728;2023-12-14T05:43:42;12.75;;;5.30;;
54743;SDS011;40639;53.170;6.728;2023-12-14T05:46:08;15.80;;;6.28;;
54743;SDS011;40639;53.170;6.728;2023-12-14T05:48:34;12.40;;;6.10;;
54743;SDS011;40639;53.170;6.728;2023-12-14T05:51:01;13.35;;;6.40;;
54743;SDS011;40639;53.170;6.728;2023-12-14T05:53:27;14.82;;;5.88;;
54743;SDS011;40639;53.170;6.728;2023-12-14T05:55:54;16.77;;;7.18;;
54743;SDS011;40639;53.170;6.728;2023-12-14T05:58:20;18.13;;;6.78;;
54743;SDS011;40639;53.170;6.728;2023-12-14T06:00:46;15.23;;;6.40;;
54743;SDS011;40639;53.170;6.728;2023-12-14T06:03:13;18.27;;;6.50;;
54743;SDS011;40639;53.170;6.728;2023-12-14T06:05:39;14.80;;;6.70;;
54743;SDS011;40639;53.170;6.728;2023-12-14T06:08:05;14.15;;;6.00;;
54743;SDS011;40639;53.170;6.728;2023-12-14T06:10:32;15.35;;;5.93;;
54743;SDS011;40639;53.170;6.728;2023-12-14T06:12:58;13.75;;;6.80;;
54743;SDS011;40639;53.170;6.728;2023-12-14T06:15:24;16.85;;;6.78;;
54743;SDS011;40639;53.170;6.728;2023-12-14T06:17:50;18.52;;;7.03;;
54743;SDS011;40639;53.170;6.728;2023-12-14T06:20:17;19.23;;;7.43;;
54743;SDS011;40639;53.170;6.728;2023-12-14T06:22:43;12.75;;;6.55;;
54743;SDS011;40639;53.170;6.728;2023-12-14T06:25:09;15.23;;;7.15;;
54743;SDS011;40639;53.170;6.728;2023-12-14T06:27:35;17.95;;;7.22;;
54743;SDS011;40639;53.170;6.728;2023-12-14T06:30:01;14.77;;;6.32;;
54743;SDS011;40639;53.170;6.728;2023-12-14T06:32:28;18.77;;;6.70;;
54743;SDS011;40639;53.170;6.728;2023-12-14T06:34:54;13.73;;;6.43;;
54743;SDS011;40639;53.170;6.728;2023-12-14T06:37:20;14.75;;;7.13;;
54743;SDS011;40639;53.170;6.728;2023-12-14T06:39:46;17.35;;;7.00;;
54743;SDS011;40639;53.170;6.728;2023-12-14T06:42:12;16.02;;;7.43;;
54743;SDS011;40639;53.170;6.728;2023-12-14T06:44:39;18.17;;;7.55;;
54743;SDS011;40639;53.170;6.728;2023-12-14T06:47:05;16.88;;;7.28;;
54743;SDS011;40639;53.170;6.728;2023-12-14T06:49:31;18.48;;;7.47;;
54743;SDS011;40639;53.170;6.728;2023-12-14T06:51:57;13.75;;;6.53;;
54743;SDS011;40639;53.170;6.728;2023-12-14T06:54:23;16.52;;;7.50;;
54743;SDS011;40639;53.170;6.728;2023-12-14T06:56:49;16.75;;;8.23;;
54743;SDS011;40639;53.170;6.728;2023-12-14T06:59:16;21.10;;;8.35;;
54743;SDS011;40639;53.170;6.728;2023-12-14T07:01:42;15.18;;;7.60;;
54743;SDS011;40639;53.170;6.728;2023-12-14T07:04:08;14.95;;;7.15;;
54743;SDS011;40639;53.170;6.728;2023-12-14T07:06:35;15.40;;;6.95;;
54743;SDS011;40639;53.170;6.728;2023-12-14T07:09:01;15.88;;;7.70;;
54743;SDS011;40639;53.170;6.728;2023-12-14T07:11:27;18.15;;;7.53;;
54743;SDS011;40639;53.170;6.728;2023-12-14T07:13:54;14.35;;;7.47;;
54743;SDS011;40639;53.170;6.728;2023-12-14T07:16:20;15.18;;;6.97;;
54743;SDS011;40639;53.170;6.728;2023-12-14T07:18:46;17.33;;;7.57;;
54743;SDS011;40639;53.170;6.728;2023-12-14T07:21:12;16.60;;;7.88;;
54743;SDS011;40639;53.170;6.728;2023-12-14T07:23:39;15.63;;;7.57;;
54743;SDS011;40639;53.170;6.728;2023-12-14T07:26:05;16.48;;;7.60;;
54743;SDS011;40639;53.170;6.728;2023-12-14T07:28:31;19.23;;;7.90;;
54743;SDS011;40639;53.170;6.728;2023-12-14T07:30:57;14.85;;;6.85;;
54743;SDS011;40639;53.170;6.728;2023-12-14T07:33:24;17.23;;;7.38;;
54743;SDS011;40639;53.170;6.728;2023-12-14T07:35:50;18.50;;;7.28;;
54743;SDS011;40639;53.170;6.728;2023-12-14T07:38:16;17.25;;;7.32;;
54743;SDS011;40639;53.170;6.728;2023-12-14T07:40:42;18.00;;;7.88;;
54743;SDS011;40639;53.170;6.728;2023-12-14T07:43:08;16.90;;;7.03;;
54743;SDS011;40639;53.170;6.728;2023-12-14T07:45:34;19.98;;;9.50;;
54743;SDS011;40639;53.170;6.728;2023-12-14T07:48:01;17.67;;;7.60;;
54743;SDS011;40639;53.170;6.728;2023-12-14T07:50:29;17.13;;;7.53;;
54743;SDS011;40639;53.170;6.728;2023-12-14T07:52:55;19.85;;;9.65;;
54743;SDS011;40639;53.170;6.728;2023-12-14T07:55:21;21.05;;;9.18;;
54743;SDS011;40639;53.170;6.728;2023-12-14T07:57:47;15.65;;;8.07;;
54743;SDS011;40639;53.170;6.728;2023-12-14T08:00:15;19.83;;;7.97;;
54743;SDS011;40639;53.170;6.728;2023-12-14T08:02:41;19.02;;;8.45;;
54743;SDS011;40639;53.170;6.728;2023-12-14T08:05:07;16.35;;;7.05;;
54743;SDS011;40639;53.170;6.728;2023-12-14T08:07:34;18.60;;;7.10;;
54743;SDS011;40639;53.170;6.728;2023-12-14T08:10:00;17.00;;;7.85;;
54743;SDS011;40639;53.170;6.728;2023-12-14T08:12:27;15.77;;;7.32;;
54743;SDS011;40639;53.170;6.728;2023-12-14T08:14:53;13.50;;;7.32;;
54743;SDS011;40639;53.170;6.728;2023-12-14T08:17:19;17.60;;;7.85;;
54743;SDS011;40639;53.170;6.728;2023-12-14T08:19:46;15.40;;;7.88;;
54743;SDS011;40639;53.170;6.728;2023-12-14T08:22:12;16.42;;;7.60;;
54743;SDS011;40639;53.170;6.728;2023-12-14T08:24:40;15.35;;;7.55;;
54743;SDS011;40639;53.170;6.728;2023-12-14T08:27:06;15.85;;;7.70;;
54743;SDS011;40639;53.170;6.728;2023-12-14T08:29:33;19.05;;;7.32;;
54743;SDS011;40639;53.170;6.728;2023-12-14T08:31:59;16.08;;;7.35;;
54743;SDS011;40639;53.170;6.728;2023-12-14T08:34:26;17.17;;;7.90;;
54743;SDS011;40639;53.170;6.728;2023-12-14T08:36:53;21.33;;;8.30;;
54743;SDS011;40639;53.170;6.728;2023-12-14T08:39:19;17.85;;;7.85;;
54743;SDS011;40639;53.170;6.728;2023-12-14T08:41:45;17.63;;;7.18;;
54743;SDS011;40639;53.170;6.728;2023-12-14T08:44:12;16.05;;;7.47;;
54743;SDS011;40639;53.170;6.728;2023-12-14T08:46:39;16.92;;;8.32;;
54743;SDS011;40639;53.170;6.728;2023-12-14T08:49:05;16.70;;;7.50;;
54743;SDS011;40639;53.170;6.728;2023-12-14T08:51:31;16.90;;;7.45;;
54743;SDS011;40639;53.170;6.728;2023-12-14T08:53:57;17.80;;;7.25;;
54743;SDS011;40639;53.170;6.728;2023-12-14T08:56:23;18.50;;;7.30;;
54743;SDS011;40639;53.170;6.728;2023-12-14T08:58:50;16.60;;;7.18;;
54743;SDS011;40639;53.170;6.728;2023-12-14T09:01:21;17.80;;;8.02;;
54743;SDS011;40639;53.170;6.728;2023-12-14T09:03:47;19.80;;;7.93;;
54743;SDS011;40639;53.170;6.728;2023-12-14T09:06:15;17.55;;;8.55;;
54743;SDS011;40639;53.170;6.728;2023-12-14T09:08:41;16.25;;;7.05;;
54743;SDS011;40639;53.170;6.728;2023-12-14T09:11:08;17.13;;;7.22;;
54743;SDS011;40639;53.170;6.728;2023-12-14T09:13:34;19.67;;;8.52;;
54743;SDS011;40639;53.170;6.728;2023-12-14T09:16:00;19.08;;;8.73;;
54743;SDS011;40639;53.170;6.728;2023-12-14T09:18:26;16.70;;;7.28;;
54743;SDS011;40639;53.170;6.728;2023-12-14T09:20:52;17.55;;;8.52;;
54743;SDS011;40639;53.170;6.728;2023-12-14T09:23:18;18.67;;;7.53;;
54743;SDS011;40639;53.170;6.728;2023-12-14T09:25:45;18.17;;;8.63;;
54743;SDS011;40639;53.170;6.728;2023-12-14T09:28:11;16.45;;;8.60;;
54743;SDS011;40639;53.170;6.728;2023-12-14T09:30:37;17.25;;;8.48;;
54743;SDS011;40639;53.170;6.728;2023-12-14T09:33:03;17.52;;;8.70;;
54743;SDS011;40639;53.170;6.728;2023-12-14T09:35:31;19.17;;;8.20;;
54743;SDS011;40639;53.170;6.728;2023-12-14T09:37:57;20.30;;;8.38;;
54743;SDS011;40639;53.170;6.728;2023-12-14T09:40:23;19.13;;;8.48;;
54743;SDS011;40639;53.170;6.728;2023-12-14T09:42:49;17.55;;;9.15;;
54743;SDS011;40639;53.170;6.728;2023-12-14T09:45:16;18.65;;;8.00;;
54743;SDS011;40639;53.170;6.728;2023-12-14T09:47:42;20.55;;;8.80;;
54743;SDS011;40639;53.170;6.728;2023-12-14T09:50:10;18.80;;;8.40;;
54743;SDS011;40639;53.170;6.728;2023-12-14T09:52:36;20.88;;;8.38;;
54743;SDS011;40639;53.170;6.728;2023-12-14T09:55:02;17.35;;;8.20;;
54743;SDS011;40639;53.170;6.728;2023-12-14T09:57:29;20.75;;;9.15;;
54743;SDS011;40639;53.170;6.728;2023-12-14T09:59:56;17.35;;;9.25;;
54743;SDS011;40639;53.170;6.728;2023-12-14T10:02:25;21.20;;;8.77;;
54743;SDS011;40639;53.170;6.728;2023-12-14T10:04:52;18.50;;;8.30;;
54743;SDS011;40639;53.170;6.728;2023-12-14T10:07:19;18.88;;;8.80;;
54743;SDS011;40639;53.170;6.728;2023-12-14T10:09:45;18.23;;;8.45;;
54743;SDS011;40639;53.170;6.728;2023-12-14T10:12:11;16.90;;;8.75;;
54743;SDS011;40639;53.170;6.728;2023-12-14T10:14:37;20.65;;;7.68;;
54743;SDS011;40639;53.170;6.728;2023-12-14T10:17:17;17.15;;;7.75;;
54743;SDS011;40639;53.170;6.728;2023-12-14T10:19:44;15.82;;;7.60;;
54743;SDS011;40639;53.170;6.728;2023-12-14T10:22:13;18.48;;;8.98;;
54743;SDS011;40639;53.170;6.728;2023-12-14T10:24:42;18.88;;;9.73;;
54743;SDS011;40639;53.170;6.728;2023-12-14T10:27:08;18.77;;;8.65;;
54743;SDS011;40639;53.170;6.728;2023-12-14T10:29:34;20.85;;;8.63;;
54743;SDS011;40639;53.170;6.728;2023-12-14T10:32:05;17.48;;;8.10;;
54743;SDS011;40639;53.170;6.728;2023-12-14T10:34:32;20.77;;;9.05;;
54743;SDS011;40639;53.170;6.728;2023-12-14T10:36:59;17.60;;;8.63;;
54743;SDS011;40639;53.170;6.728;2023-12-14T10:39:25;24.13;;;9.57;;
54743;SDS011;40639;53.170;6.728;2023-12-14T10:41:52;20.42;;;9.57;;
54743;SDS011;40639;53.170;6.728;2023-12-14T10:44:20;21.52;;;9.82;;
54743;SDS011;40639;53.170;6.728;2023-12-14T10:46:49;18.58;;;8.77;;
54743;SDS011;40639;53.170;6.728;2023-12-14T10:49:16;16.80;;;8.10;;
54743;SDS011;40639;53.170;6.728;2023-12-14T10:51:42;18.65;;;8.52;;
54743;SDS011;40639;53.170;6.728;2023-12-14T10:54:08;18.02;;;8.68;;
54743;SDS011;40639;53.170;6.728;2023-12-14T10:56:35;23.65;;;9.50;;
54743;SDS011;40639;53.170;6.728;2023-12-14T10:59:02;19.85;;;8.40;;
54743;SDS011;40639;53.170;6.728;2023-12-14T11:01:30;19.45;;;8.60;;
54743;SDS011;40639;53.170;6.728;2023-12-14T11:04:00;17.73;;;8.55;;
54743;SDS011;40639;53.170;6.728;2023-12-14T11:08:54;19.15;;;7.82;;
54743;SDS011;40639;53.170;6.728;2023-12-14T11:11:21;21.15;;;9.23;;
54743;SDS011;40639;53.170;6.728;2023-12-14T11:13:52;18.65;;;7.88;;
54743;SDS011;40639;53.170;6.728;2023-12-14T11:16:21;19.63;;;8.45;;
54743;SDS011;40639;53.170;6.728;2023-12-14T11:18:47;19.50;;;8.40;;
54743;SDS011;40639;53.170;6.728;2023-12-14T11:21:18;19.08;;;8.35;;
54743;SDS011;40639;53.170;6.728;2023-12-14T11:23:50;19.50;;;9.02;;
54743;SDS011;40639;53.170;6.728;2023-12-14T11:26:22;19.25;;;8.13;;
54743;SDS011;40639;53.170;6.728;2023-12-14T11:28:53;13.38;;;7.07;;
54743;SDS011;40639;53.170;6.728;2023-12-14T11:31:20;16.45;;;8.52;;
54743;SDS011;40639;53.170;6.728;2023-12-14T11:33:47;17.50;;;7.57;;
54743;SDS011;40639;53.170;6.728;2023-12-14T11:36:14;20.17;;;8.77;;
54743;SDS011;40639;53.170;6.728;2023-12-14T11:38:41;15.15;;;8.20;;
54743;SDS011;40639;53.170;6.728;2023-12-14T11:41:08;16.80;;;7.60;;
54743;SDS011;40639;53.170;6.728;2023-12-14T11:43:41;14.15;;;7.55;;
54743;SDS011;40639;53.170;6.728;2023-12-14T11:46:07;15.82;;;7.65;;
54743;SDS011;40639;53.170;6.728;2023-12-14T11:48:33;20.15;;;8.18;;
54743;SDS011;40639;53.170;6.728;2023-12-14T11:50:59;18.58;;;8.27;;
54743;SDS011;40639;53.170;6.728;2023-12-14T11:53:26;17.58;;;8.15;;
54743;SDS011;40639;53.170;6.728;2023-12-14T11:55:52;16.58;;;7.60;;
54743;SDS011;40639;53.170;6.728;2023-12-14T11:58:18;18.58;;;8.77;;
54743;SDS011;40639;53.170;6.728;2023-12-14T12:00:44;17.95;;;7.30;;
54743;SDS011;40639;53.170;6.728;2023-12-14T12:03:16;15.32;;;7.68;;
54743;SDS011;40639;53.170;6.728;2023-12-14T12:05:45;17.45;;;7.95;;
54743;SDS011;40639;53.170;6.728;2023-12-14T12:08:12;16.30;;;8.02;;
54743;SDS011;40639;53.170;6.728;2023-12-14T12:10:39;15.82;;;8.02;;
54743;SDS011;40639;53.170;6.728;2023-12-14T12:13:15;16.73;;;8.05;;
54743;SDS011;40639;53.170;6.728;2023-12-14T12:15:42;16.75;;;8.00;;
54743;SDS011;40639;53.170;6.728;2023-12-14T12:18:08;14.98;;;7.82;;
54743;SDS011;40639;53.170;6.728;2023-12-14T12:20:35;17.13;;;7.93;;
54743;SDS011;40639;53.170;6.728;2023-12-14T12:23:01;15.73;;;7.00;;
54743;SDS011;40639;53.170;6.728;2023-12-14T12:25:28;15.32;;;7.43;;
54743;SDS011;40639;53.170;6.728;2023-12-14T12:27:56;16.80;;;7.95;;
54743;SDS011;40639;53.170;6.728;2023-12-14T12:30:22;16.67;;;7.80;;
54743;SDS011;40639;53.170;6.728;2023-12-14T12:32:52;14.75;;;7.50;;
54743;SDS011;40639;53.170;6.728;2023-12-14T12:35:18;17.02;;;7.78;;
54743;SDS011;40639;53.170;6.728;2023-12-14T12:37:45;16.65;;;7.60;;
54743;SDS011;40639;53.170;6.728;2023-12-14T12:40:11;14.40;;;6.93;;
54743;SDS011;40639;53.170;6.728;2023-12-14T12:42:41;17.33;;;7.75;;
54743;SDS011;40639;53.170;6.728;2023-12-14T12:45:07;16.50;;;7.60;;
54743;SDS011;40639;53.170;6.728;2023-12-14T12:47:33;15.30;;;7.70;;
54743;SDS011;40639;53.170;6.728;2023-12-14T12:49:59;18.77;;;7.00;;
54743;SDS011;40639;53.170;6.728;2023-12-14T12:52:26;14.43;;;6.85;;
54743;SDS011;40639;53.170;6.728;2023-12-14T12:54:52;15.10;;;6.97;;
54743;SDS011;40639;53.170;6.728;2023-12-14T12:57:18;13.32;;;6.10;;
54743;SDS011;40639;53.170;6.728;2023-12-14T12:59:44;13.15;;;6.55;;
54743;SDS011;40639;53.170;6.728;2023-12-14T13:02:10;14.13;;;6.43;;
54743;SDS011;40639;53.170;6.728;2023-12-14T13:04:37;14.48;;;6.82;;
54743;SDS011;40639;53.170;6.728;2023-12-14T13:07:03;13.98;;;6.85;;
54743;SDS011;40639;53.170;6.728;2023-12-14T13:09:30;15.75;;;7.22;;
54743;SDS011;40639;53.170;6.728;2023-12-14T13:11:56;14.25;;;6.90;;
54743;SDS011;40639;53.170;6.728;2023-12-14T13:14:22;13.57;;;6.22;;
54743;SDS011;40639;53.170;6.728;2023-12-14T13:16:48;16.50;;;7.18;;
54743;SDS011;40639;53.170;6.728;2023-12-14T13:19:15;16.33;;;7.70;;
54743;SDS011;40639;53.170;6.728;2023-12-14T13:21:41;15.02;;;7.68;;
54743;SDS011;40639;53.170;6.728;2023-12-14T13:24:07;13.05;;;6.43;;
54743;SDS011;40639;53.170;6.728;2023-12-14T13:26:33;14.18;;;7.25;;
54743;SDS011;40639;53.170;6.728;2023-12-14T13:29:00;14.57;;;7.03;;
54743;SDS011;40639;53.170;6.728;2023-12-14T13:31:26;13.15;;;6.75;;
54743;SDS011;40639;53.170;6.728;2023-12-14T13:33:52;14.13;;;6.50;;
54743;SDS011;40639;53.170;6.728;2023-12-14T13:36:18;14.02;;;6.65;;
54743;SDS011;40639;53.170;6.728;2023-12-14T13:38:44;13.38;;;5.93;;
54743;SDS011;40639;53.170;6.728;2023-12-14T13:41:11;14.85;;;7.35;;
54743;SDS011;40639;53.170;6.728;2023-12-14T13:43:37;12.57;;;6.97;;
54743;SDS011;40639;53.170;6.728;2023-12-14T13:46:03;11.10;;;6.50;;
54743;SDS011;40639;53.170;6.728;2023-12-14T13:48:29;13.52;;;6.78;;
54743;SDS011;40639;53.170;6.728;2023-12-14T13:50:56;12.93;;;6.28;;
54743;SDS011;40639;53.170;6.728;2023-12-14T13:53:22;15.82;;;7.30;;
54743;SDS011;40639;53.170;6.728;2023-12-14T13:55:49;13.32;;;6.45;;
54743;SDS011;40639;53.170;6.728;2023-12-14T13:58:15;15.10;;;7.10;;
54743;SDS011;40639;53.170;6.728;2023-12-14T14:00:42;12.82;;;6.50;;
54743;SDS011;40639;53.170;6.728;2023-12-14T14:03:08;14.32;;;7.32;;
54743;SDS011;40639;53.170;6.728;2023-12-14T14:05:35;16.80;;;6.78;;
54743;SDS011;40639;53.170;6.728;2023-12-14T14:08:01;12.43;;;6.10;;
54743;SDS011;40639;53.170;6.728;2023-12-14T14:10:28;11.65;;;6.07;;
54743;SDS011;40639;53.170;6.728;2023-12-14T14:12:55;13.38;;;7.03;;
54743;SDS011;40639;53.170;6.728;2023-12-14T14:15:21;13.85;;;7.47;;
54743;SDS011;40639;53.170;6.728;2023-12-14T14:17:47;13.82;;;6.72;;
54743;SDS011;40639;53.170;6.728;2023-12-14T14:20:16;13.10;;;6.32;;
54743;SDS011;40639;53.170;6.728;2023-12-14T14:22:43;16.40;;;6.57;;
54743;SDS011;40639;53.170;6.728;2023-12-14T14:25:09;15.98;;;6.82;;
54743;SDS011;40639;53.170;6.728;2023-12-14T14:27:35;14.02;;;6.55;;
54743;SDS011;40639;53.170;6.728;2023-12-14T14:30:03;14.60;;;7.28;;
54743;SDS011;40639;53.170;6.728;2023-12-14T14:32:29;15.38;;;7.88;;
54743;SDS011;40639;53.170;6.728;2023-12-14T14:34:57;12.52;;;6.63;;